Time;durP1;ratioP1;P1;durP2;ratioP2;P2;SDS_P1;SDS_P2;PMS_P1;PMS_P2;Temp;Humidity;BMP_temperature;BMP_pressure;BME280_temperature;BME280_humidity;BME280_pressure;Samples;Min_cycle;Max_cycle;Signal;HPM_P1;HPM_P2
2021/01/05 00:01:30;;;;;;;;;;;;;;;3.42;82.33;97707.90;1703615;81;22981;-90
2021/01/05 00:04:16;;;;;;;;;;;;;;;3.34;82.35;97706.16;1715374;82;27139;-90
2021/01/05 00:07:03;;;;;;;;;;;;;;;3.34;82.37;97710.04;1702930;83;24650;-90
2021/01/05 00:09:49;;;;;;;;;;;;;;;3.41;82.37;97704.09;1707377;83;20224;-90
2021/01/05 00:12:35;;;;;;;;;;;;;;;3.53;82.37;97707.33;1713117;82;38122;-90
2021/01/05 00:15:23;;;;;;;;;;;;;;;3.54;82.38;97709.84;1709270;82;22340;-91
2021/01/05 00:18:10;;;;;;;;;;;;;;;3.61;82.42;97711.62;1707482;81;26317;-89
2021/01/05 00:20:56;;;;;;;;;;;;;;;3.64;82.41;97703.71;1704991;83;24516;-90
2021/01/05 00:23:42;;;;;;;;;;;;;;;3.67;82.43;97706.13;1708136;83;20300;-89
2021/01/05 00:26:28;;;;;;;;;;;;;;;3.71;82.45;97706.33;1709277;83;25035;-89
2021/01/05 00:29:01;;;;;;;;;;;;;;;3.76;82.47;97710.33;1710596;83;22103;-89
2021/01/05 00:31:49;;;;;;;;;;;;;;;3.86;82.48;97715.03;1711253;83;26129;-88
2021/01/05 00:34:35;;;;;;;;;;;;;;;3.91;82.49;97711.27;1703108;83;24650;-89
2021/01/05 00:37:21;;;;;;;;;;;;;;;3.85;82.53;97712.90;1708777;83;20355;-89
2021/01/05 00:40:07;;;;;;;;;;;;;;;3.84;82.54;97711.22;1706893;83;25208;-89
2021/01/05 00:42:53;;;;;;;;;;;;;;;3.88;82.52;97713.17;1712803;83;22249;-89
2021/01/05 00:45:40;;;;;;;;;;;;;;;3.92;82.53;97710.36;1698519;83;26138;-89
2021/01/05 00:48:26;;;;;;;;;;;;;;;3.93;82.53;97707.32;1702680;83;24623;-89
2021/01/05 00:51:12;;;;;;;;;;;;;;;3.90;82.54;97705.72;1717195;82;20283;-88
2021/01/05 00:53:58;;;;;;;;;;;;;;;3.86;82.54;97711.15;1711746;83;25111;-88
2021/01/05 00:56:45;;;;;;;;;;;;;;;3.82;82.52;97698.81;1679664;83;23719;-88
2021/01/05 00:59:31;;;;;;;;;;;;;;;3.94;82.49;97702.48;1706139;83;26129;-89
2021/01/05 01:02:19;;;;;;;;;;;;;;;3.85;82.50;97705.59;1710086;81;24585;-89
2021/01/05 01:05:05;;;;;;;;;;;;;;;3.81;82.50;97702.80;1710753;83;20594;-89
2021/01/05 01:07:51;;;;;;;;;;;;;;;3.84;82.48;97695.70;1720562;81;25412;-89
2021/01/05 01:10:38;;;;;;;;;;;;;;;3.84;82.49;97695.70;1697544;83;22125;-89
2021/01/05 01:13:24;;;;;;;;;;;;;;;3.87;82.48;97694.25;1720715;83;26188;-89
2021/01/05 01:16:10;;;;;;;;;;;;;;;3.94;82.45;97696.02;1708947;83;25062;-89
2021/01/05 01:18:56;;;;;;;;;;;;;;;4.02;82.44;97692.56;1706366;82;20271;-89
2021/01/05 01:21:42;;;;;;;;;;;;;;;4.07;82.44;97687.97;1725806;82;25137;-89
2021/01/05 01:24:28;;;;;;;;;;;;;;;4.00;82.45;97691.34;1721332;82;22159;-89
2021/01/05 01:27:14;;;;;;;;;;;;;;;3.87;82.48;97692.95;1703712;83;26134;-89
2021/01/05 01:30:00;;;;;;;;;;;;;;;3.77;82.47;97696.94;1708360;82;24626;-89
2021/01/05 01:32:46;;;;;;;;;;;;;;;3.69;82.46;97694.78;1710346;82;20339;-89
2021/01/05 01:35:32;;;;;;;;;;;;;;;3.68;82.44;97690.52;1718944;82;25425;-89
2021/01/05 01:38:18;;;;;;;;;;;;;;;3.63;82.42;97687.80;1728654;82;22993;-90
2021/01/05 01:41:04;;;;;;;;;;;;;;;3.48;82.44;97681.72;1730219;82;26286;-89
2021/01/05 01:43:52;;;;;;;;;;;;;;;3.42;82.41;97684.63;1707771;82;25568;-88
2021/01/05 01:46:40;;;;;;;;;;;;;;;3.43;82.40;97679.00;1728370;82;20436;-89
2021/01/05 01:49:26;;;;;;;;;;;;;;;3.43;82.37;97675.95;1720659;82;25438;-90
2021/01/05 01:52:12;;;;;;;;;;;;;;;3.51;82.37;97676.36;1716111;81;21486;-89
2021/01/05 01:54:58;;;;;;;;;;;;;;;3.52;82.39;97677.20;1717362;82;26140;-89
2021/01/05 01:57:49;;;;;;;;;;;;;;;3.60;82.39;97673.27;1713325;83;26000;-89
2021/01/05 02:00:35;;;;;;;;;;;;;;;3.60;82.42;97675.05;1706693;82;20487;-89
2021/01/05 02:03:21;;;;;;;;;;;;;;;3.54;82.43;97675.38;1720512;82;25133;-89
2021/01/05 02:06:06;;;;;;;;;;;;;;;3.53;82.44;97669.37;1720384;82;22165;-89
2021/01/05 02:08:56;;;;;;;;;;;;;;;3.48;82.47;97668.78;1679072;84;27207;-89
2021/01/05 02:11:42;;;;;;;;;;;;;;;3.53;82.48;97665.48;1663244;85;25498;-89
2021/01/05 02:14:28;;;;;;;;;;;;;;;3.62;82.45;97661.10;1678064;84;20343;-89
2021/01/05 02:17:14;;;;;;;;;;;;;;;3.67;82.46;97661.68;1672974;85;25284;-89
2021/01/05 02:20:00;;;;;;;;;;;;;;;3.72;82.48;97664.84;1629290;88;22410;-89
2021/01/05 02:22:46;;;;;;;;;;;;;;;3.69;82.51;97662.90;1666280;85;27057;-89
2021/01/05 02:25:32;;;;;;;;;;;;;;;3.79;82.52;97653.25;1668840;85;24621;-89
2021/01/05 02:28:18;;;;;;;;;;;;;;;3.80;82.54;97654.09;1666128;85;20293;-89
2021/01/05 02:31:04;;;;;;;;;;;;;;;3.80;82.54;97652.80;1670749;85;25086;-89
2021/01/05 02:33:50;;;;;;;;;;;;;;;3.82;82.56;97648.84;1665129;85;22283;-89
2021/01/05 02:36:36;;;;;;;;;;;;;;;3.74;82.56;97642.33;1671575;85;26207;-89
2021/01/05 02:39:22;;;;;;;;;;;;;;;3.81;82.58;97641.53;1668087;85;24644;-89
2021/01/05 02:42:08;;;;;;;;;;;;;;;3.87;82.55;97641.66;1670118;85;20346;-89
2021/01/05 02:44:54;;;;;;;;;;;;;;;3.92;82.55;97641.77;1672055;84;25138;-89
2021/01/05 02:47:44;;;;;;;;;;;;;;;3.92;82.57;97635.30;1663922;85;22158;-88
2021/01/05 02:50:32;;;;;;;;;;;;;;;4.01;82.55;97636.52;1672463;85;26191;-89
2021/01/05 02:53:19;;;;;;;;;;;;;;;4.03;82.56;97630.36;1641935;85;25459;-89
2021/01/05 02:56:04;;;;;;;;;;;;;;;4.08;82.54;97624.91;1671369;85;20537;-89
2021/01/05 02:58:50;;;;;;;;;;;;;;;4.17;82.54;97625.67;1673968;85;25193;-89
2021/01/05 03:01:36;;;;;;;;;;;;;;;4.23;82.52;97624.48;1669589;85;22122;-89
2021/01/05 03:04:24;;;;;;;;;;;;;;;4.28;82.55;97620.72;1645676;86;26151;-89
2021/01/05 03:07:10;;;;;;;;;;;;;;;4.23;82.53;97616.72;1629891;88;24605;-89
2021/01/05 03:10:00;;;;;;;;;;;;;;;4.21;82.55;97612.91;1628929;88;20268;-89
2021/01/05 03:12:46;;;;;;;;;;;;;;;4.15;82.55;97606.79;1630719;86;25218;-90
2021/01/05 03:15:32;;;;;;;;;;;;;;;4.16;82.53;97605.88;1630013;88;22077;-89
2021/01/05 03:18:18;;;;;;;;;;;;;;;4.13;82.50;97607.36;1626374;88;26315;-89
2021/01/05 03:21:07;;;;;;;;;;;;;;;4.13;82.47;97607.36;1608110;87;24674;-88
2021/01/05 03:23:53;;;;;;;;;;;;;;;4.10;82.46;97602.34;1623088;88;20258;-89
2021/01/05 03:26:34;;;;;;;;;;;;;;;4.05;82.44;97602.61;1623190;87;25145;-88
2021/01/05 03:29:21;;;;;;;;;;;;;;;3.93;82.41;97595.53;1628770;87;22157;-89
2021/01/05 03:32:07;;;;;;;;;;;;;;;3.81;82.41;97593.66;1628579;87;26230;-89
2021/01/05 03:34:53;;;;;;;;;;;;;;;3.71;82.37;97599.78;1632662;87;25478;-89
2021/01/05 03:37:39;;;;;;;;;;;;;;;3.64;82.33;97595.89;1628389;87;20292;-88
2021/01/05 03:40:26;;;;;;;;;;;;;;;3.57;82.27;97599.73;1627449;87;25094;-89
2021/01/05 03:43:16;;;;;;;;;;;;;;;3.54;82.22;97597.78;1624993;87;23156;-89
2021/01/05 03:46:02;;;;;;;;;;;;;;;3.44;82.19;97592.73;1628583;87;27000;-89
2021/01/05 03:48:52;;;;;;;;;;;;;;;3.40;82.16;97592.51;1628202;87;24732;-89
2021/01/05 03:51:39;;;;;;;;;;;;;;;3.31;82.11;97597.28;1628643;87;20289;-90
2021/01/05 03:54:30;;;;;;;;;;;;;;;3.26;82.10;97599.73;1628057;87;26056;-89
2021/01/05 03:57:16;;;;;;;;;;;;;;;3.16;82.07;97599.86;1626988;87;22031;-89
2021/01/05 04:00:05;;;;;;;;;;;;;;;3.05;82.05;97592.67;1621403;87;26121;-89
2021/01/05 04:02:51;;;;;;;;;;;;;;;2.98;82.04;97595.20;1621036;87;24556;-89
2021/01/05 04:05:41;;;;;;;;;;;;;;;2.93;82.02;97595.91;1626459;87;20481;-89
2021/01/05 04:08:32;;;;;;;;;;;;;;;2.92;81.99;97600.23;1621120;87;25137;-89
2021/01/05 04:11:19;;;;;;;;;;;;;;;2.92;81.95;97597.66;1616458;88;22252;-88
2021/01/05 04:19:18;;;;;;;;;;;;;;;2.74;81.90;97593.44;1627423;87;20435;-88
2021/01/05 04:22:04;;;;;;;;;;;;;;;2.68;81.85;97596.33;1601949;87;25113;-89
2021/01/05 04:24:51;;;;;;;;;;;;;;;2.69;81.84;97587.67;1627119;87;22137;-88
2021/01/05 04:27:37;;;;;;;;;;;;;;;2.78;81.81;97588.47;1626694;87;26169;-88
2021/01/05 04:30:27;;;;;;;;;;;;;;;2.82;81.80;97582.71;1627797;87;24648;-88
2021/01/05 04:33:13;;;;;;;;;;;;;;;2.95;81.80;97580.67;1625589;87;20284;-88
2021/01/05 04:36:00;;;;;;;;;;;;;;;3.06;81.79;97584.44;1625798;87;25138;-88
2021/01/05 04:38:45;;;;;;;;;;;;;;;3.22;81.78;97583.98;1626272;87;22899;-88
2021/01/05 04:41:32;;;;;;;;;;;;;;;3.29;81.78;97573.70;1623898;87;26173;-87
2021/01/05 04:44:18;;;;;;;;;;;;;;;3.38;81.76;97572.38;1626685;87;24883;-87
2021/01/05 04:47:04;;;;;;;;;;;;;;;3.39;81.75;97570.98;1625464;87;20278;-87
2021/01/05 04:49:51;;;;;;;;;;;;;;;3.43;81.72;97569.08;1627760;87;25226;-89
2021/01/05 04:52:37;;;;;;;;;;;;;;;3.49;81.69;97572.63;1628301;86;22912;-88
2021/01/05 04:55:17;;;;;;;;;;;;;;;3.52;81.69;97570.70;1624434;87;25463;-88
2021/01/05 04:58:05;;;;;;;;;;;;;;;3.52;81.65;97565.98;1626789;86;24994;-88
2021/01/05 05:00:51;;;;;;;;;;;;;;;3.50;81.62;97567.34;1621011;88;20323;-88
2021/01/05 05:03:37;;;;;;;;;;;;;;;3.49;81.59;97563.58;1629075;87;25200;-89
2021/01/05 05:06:24;;;;;;;;;;;;;;;3.44;81.54;97566.39;1624717;86;22241;-89
2021/01/05 05:09:09;;;;;;;;;;;;;;;3.40;81.51;97561.48;1629298;87;25928;-89
2021/01/05 05:11:56;;;;;;;;;;;;;;;3.32;81.45;97560.16;1614762;87;24576;-88
2021/01/05 05:14:42;;;;;;;;;;;;;;;3.23;81.39;97556.77;1622602;86;20882;-88
2021/01/05 05:17:28;;;;;;;;;;;;;;;3.21;81.33;97564.25;1623533;87;25137;-90
2021/01/05 05:20:14;;;;;;;;;;;;;;;3.18;81.29;97566.98;1625388;87;21571;-89
2021/01/05 05:23:00;;;;;;;;;;;;;;;3.16;81.24;97558.50;1627787;87;26160;-88
2021/01/05 05:25:48;;;;;;;;;;;;;;;3.12;81.20;97559.55;1622162;87;24494;-89
2021/01/05 05:28:34;;;;;;;;;;;;;;;3.09;81.13;97559.73;1624222;86;20547;-89
2021/01/05 05:31:20;;;;;;;;;;;;;;;3.03;81.12;97560.90;1626175;87;25243;-89
2021/01/05 05:34:07;;;;;;;;;;;;;;;2.98;81.05;97551.72;1605418;87;21760;-89
2021/01/05 05:36:54;;;;;;;;;;;;;;;2.92;81.01;97557.59;1622813;87;26473;-89
2021/01/05 05:39:44;;;;;;;;;;;;;;;2.86;80.98;97557.92;1627981;87;24815;-90
2021/01/05 05:42:31;;;;;;;;;;;;;;;2.81;80.93;97561.20;1625449;87;20444;-90
2021/01/05 05:45:19;;;;;;;;;;;;;;;2.76;80.88;97561.07;1626165;87;25210;-90
2021/01/05 05:48:05;;;;;;;;;;;;;;;2.69;80.88;97559.26;1623783;87;22223;-89
2021/01/05 05:50:51;;;;;;;;;;;;;;;2.64;80.84;97556.09;1626186;87;26135;-90
2021/01/05 05:53:38;;;;;;;;;;;;;;;2.61;80.79;97556.26;1623681;87;24629;-90
2021/01/05 05:56:24;;;;;;;;;;;;;;;2.57;80.78;97554.73;1624154;87;20550;-90
2021/01/05 05:59:10;;;;;;;;;;;;;;;2.57;80.76;97554.73;1627725;86;26064;-90
2021/01/05 06:01:56;;;;;;;;;;;;;;;2.59;80.72;97555.95;1627240;87;22324;-90
2021/01/05 06:04:42;;;;;;;;;;;;;;;2.56;80.74;97558.25;1624169;87;26329;-89
2021/01/05 06:07:29;;;;;;;;;;;;;;;2.54;80.71;97556.19;1628291;87;24798;-89
2021/01/05 06:10:16;;;;;;;;;;;;;;;2.52;80.71;97556.72;1630667;88;20421;-89
2021/01/05 06:13:02;;;;;;;;;;;;;;;2.53;80.68;97554.52;1618142;88;25217;-88
2021/01/05 06:15:48;;;;;;;;;;;;;;;2.53;80.68;97551.94;1621072;88;22170;-90
2021/01/05 06:18:37;;;;;;;;;;;;;;;2.53;80.67;97555.35;1620475;87;25840;-90
2021/01/05 06:21:26;;;;;;;;;;;;;;;2.54;80.66;97551.02;1625267;87;24592;-90
2021/01/05 06:24:12;;;;;;;;;;;;;;;2.53;80.67;97556.64;1646229;86;20242;-90
2021/01/05 06:26:58;;;;;;;;;;;;;;;2.51;80.67;97552.00;1655244;86;25194;-90
2021/01/05 06:29:48;;;;;;;;;;;;;;;2.50;80.65;97548.23;1638272;86;22139;-89
2021/01/05 06:32:34;;;;;;;;;;;;;;;2.55;80.63;97549.28;1648748;86;26337;-89
2021/01/05 06:35:21;;;;;;;;;;;;;;;2.59;80.60;97549.03;1646901;86;25453;-90
2021/01/05 06:38:07;;;;;;;;;;;;;;;2.58;80.63;97547.81;1642042;86;20278;-89
2021/01/05 06:40:53;;;;;;;;;;;;;;;2.56;80.63;97552.25;1636114;87;25178;-88
2021/01/05 06:43:39;;;;;;;;;;;;;;;2.51;80.62;97548.58;1631495;87;22161;-89
2021/01/05 06:49:05;;;;;;;;;;;;;;;2.45;80.61;97546.34;1618348;87;24694;-90
2021/01/05 06:51:51;;;;;;;;;;;;;;;2.40;80.61;97540.09;1621647;88;20503;-90
2021/01/05 06:54:37;;;;;;;;;;;;;;;2.34;80.61;97539.16;1608003;87;25117;-89
2021/01/05 06:57:23;;;;;;;;;;;;;;;2.31;80.59;97539.75;1617563;88;22171;-90
2021/01/05 07:03:01;;;;;;;;;;;;;;;2.22;80.56;97540.22;1617389;88;25773;-90
2021/01/05 07:05:47;;;;;;;;;;;;;;;2.18;80.57;97536.97;1646198;87;20607;-90
2021/01/05 07:08:33;;;;;;;;;;;;;;;2.16;80.56;97545.23;1623743;84;25118;-90
2021/01/05 07:11:19;;;;;;;;;;;;;;;2.11;80.56;97540.77;1623779;88;22220;-90
2021/01/05 07:14:05;;;;;;;;;;;;;;;2.05;80.55;97535.91;1633654;87;26193;-91
2021/01/05 07:16:39;;;;;;;;;;;;;;;2.05;80.53;97540.62;1605127;87;24665;-90
2021/01/05 07:19:25;;;;;;;;;;;;;;;2.01;80.52;97535.24;1618812;88;20370;-89
2021/01/05 07:22:11;;;;;;;;;;;;;;;2.00;80.54;97536.59;1640161;86;25131;-90
2021/01/05 07:24:56;;;;;;;;;;;;;;;1.97;80.53;97528.54;1597131;89;22222;-89
2021/01/05 07:27:43;;;;;;;;;;;;;;;1.97;80.53;97527.25;1602700;88;26312;-89
2021/01/05 07:30:16;;;;;;;;;;;;;;;1.96;80.54;97531.22;1585472;90;24849;-89
2021/01/05 07:33:02;;;;;;;;;;;;;;;1.95;80.54;97524.39;1572372;88;20320;-89
2021/01/05 07:35:48;;;;;;;;;;;;;;;1.92;80.56;97528.39;1620431;87;25202;-90
2021/01/05 07:38:35;;;;;;;;;;;;;;;1.90;80.56;97525.91;1643049;86;22144;-90
2021/01/05 07:41:21;;;;;;;;;;;;;;;1.87;80.56;97527.34;1627459;88;26149;-90
2021/01/05 07:44:07;;;;;;;;;;;;;;;1.85;80.56;97531.76;1606982;88;24646;-90
2021/01/05 07:46:53;;;;;;;;;;;;;;;1.84;80.58;97527.50;1614176;88;20309;-90
2021/01/05 07:49:40;;;;;;;;;;;;;;;1.89;80.59;97524.69;1603654;88;26011;-89
2021/01/05 07:52:29;;;;;;;;;;;;;;;1.88;80.59;97521.27;1604849;88;23040;-89
2021/01/05 07:55:15;;;;;;;;;;;;;;;1.90;80.64;97520.75;1608967;88;26327;-89
2021/01/05 07:58:01;;;;;;;;;;;;;;;1.91;80.64;97524.17;1632976;86;24637;-89
2021/01/05 08:00:47;;;;;;;;;;;;;;;1.90;80.66;97522.05;1604227;88;20381;-89
2021/01/05 08:03:33;;;;;;;;;;;;;;;1.91;80.67;97523.69;1604905;88;26096;-90
2021/01/05 08:06:19;;;;;;;;;;;;;;;1.88;80.70;97521.27;1607063;88;22158;-91
2021/01/05 08:09:09;;;;;;;;;;;;;;;1.90;80.70;97522.05;1607842;88;26325;-90
2021/01/05 08:11:55;;;;;;;;;;;;;;;1.93;80.73;97515.42;1609771;88;25017;-89
2021/01/05 08:14:44;;;;;;;;;;;;;;;1.95;80.73;97519.23;1627543;88;20198;-90
2021/01/05 08:17:30;;;;;;;;;;;;;;;1.96;80.74;97515.73;1605170;88;25329;-90
2021/01/05 08:20:04;;;;;;;;;;;;;;;1.94;80.76;97512.39;1607391;87;22120;-90
2021/01/05 08:22:51;;;;;;;;;;;;;;;1.98;80.76;97513.90;1606970;88;26214;-89
2021/01/05 08:25:37;;;;;;;;;;;;;;;1.99;80.78;97510.41;1626281;88;24638;-89
2021/01/05 08:28:23;;;;;;;;;;;;;;;1.97;80.81;97506.61;1610204;88;20306;-90
2021/01/05 08:31:14;;;;;;;;;;;;;;;1.95;80.83;97504.59;1608602;88;25053;-89
2021/01/05 08:34:00;;;;;;;;;;;;;;;1.95;80.84;97505.88;1615835;88;22168;-89
2021/01/05 08:36:47;;;;;;;;;;;;;;;1.93;80.84;97503.81;1612979;87;26113;-89
2021/01/05 08:39:35;;;;;;;;;;;;;;;1.95;80.87;97499.88;1628868;87;24815;-89
2021/01/05 08:42:21;;;;;;;;;;;;;;;1.94;80.87;97496.91;1608895;88;20301;-90
2021/01/05 08:45:06;;;;;;;;;;;;;;;1.96;80.87;97502.39;1616041;88;25094;-90
2021/01/05 08:47:56;;;;;;;;;;;;;;;1.96;80.89;97502.39;1605179;88;22236;-90
2021/01/05 08:50:45;;;;;;;;;;;;;;;1.98;80.88;97491.97;1616478;88;26148;-91
2021/01/05 08:53:31;;;;;;;;;;;;;;;2.01;80.91;97492.67;1612989;88;24881;-90
2021/01/05 08:56:17;;;;;;;;;;;;;;;2.03;80.93;97498.56;1634887;86;20275;-90
2021/01/05 08:59:03;;;;;;;;;;;;;;;2.03;80.95;97493.41;1610290;87;25139;-90
2021/01/05 09:01:49;;;;;;;;;;;;;;;2.03;80.95;97493.41;1607448;88;22261;-90
2021/01/05 09:04:37;;;;;;;;;;;;;;;2.07;80.97;97487.66;1608480;88;26317;-90
2021/01/05 09:07:23;;;;;;;;;;;;;;;2.05;80.97;97488.17;1636275;85;25431;-90
2021/01/05 09:10:12;;;;;;;;;;;;;;;2.04;80.98;97491.20;1651397;86;20555;-91
2021/01/05 09:12:58;;;;;;;;;;;;;;;2.03;81.00;97492.56;1625574;87;25269;-90
2021/01/05 09:15:44;;;;;;;;;;;;;;;2.00;81.01;97496.16;1617105;88;22277;-90
2021/01/05 09:18:30;;;;;;;;;;;;;;;2.02;81.00;97491.73;1607203;89;26443;-90
2021/01/05 09:21:16;;;;;;;;;;;;;;;2.02;80.99;97488.31;1606510;88;25471;-90
2021/01/05 09:24:03;;;;;;;;;;;;;;;2.03;80.99;97495.14;1614214;87;20344;-90
2021/01/05 09:26:49;;;;;;;;;;;;;;;2.03;81.00;97486.12;1626525;88;25272;-89
2021/01/05 09:29:35;;;;;;;;;;;;;;;2.03;81.00;97493.86;1624812;87;23024;-89
2021/01/05 09:32:21;;;;;;;;;;;;;;;2.01;81.03;97492.67;1601840;87;26007;-89
2021/01/05 09:35:08;;;;;;;;;;;;;;;2.00;81.03;97494.03;1623576;87;24697;-89
2021/01/05 09:37:53;;;;;;;;;;;;;;;1.98;81.02;97490.68;1621414;87;20216;-89
2021/01/05 09:40:40;;;;;;;;;;;;;;;2.00;81.03;97494.03;1622075;87;24490;-89
2021/01/05 09:43:26;;;;;;;;;;;;;;;2.01;81.03;97487.51;1619324;87;22176;-90
2021/01/05 09:46:12;;;;;;;;;;;;;;;2.03;81.06;97483.53;1621713;87;26967;-89
2021/01/05 09:49:00;;;;;;;;;;;;;;;2.06;81.05;97482.95;1624035;88;24914;-89
2021/01/05 09:51:46;;;;;;;;;;;;;;;2.09;81.07;97483.23;1645577;86;20339;-90
2021/01/05 09:54:36;;;;;;;;;;;;;;;2.08;81.09;97483.68;1631526;87;25382;-89
2021/01/05 09:57:22;;;;;;;;;;;;;;;2.09;81.09;97483.23;1616356;88;22114;-89
2021/01/05 10:00:08;;;;;;;;;;;;;;;2.09;81.08;97475.03;1622189;87;26207;-90
2021/01/05 10:02:54;;;;;;;;;;;;;;;2.09;81.10;97475.48;1609719;87;24606;-89
2021/01/05 10:05:40;;;;;;;;;;;;;;;2.06;81.10;97466.62;1620271;88;20293;-89
2021/01/05 10:08:29;;;;;;;;;;;;;;;2.02;81.10;97471.09;1599291;87;25178;-90
2021/01/05 10:11:15;;;;;;;;;;;;;;;2.02;81.11;97471.54;1577868;89;22301;-90
2021/01/05 10:14:01;;;;;;;;;;;;;;;2.02;81.12;97472.83;1583409;89;26420;-89
2021/01/05 10:16:51;;;;;;;;;;;;;;;1.99;81.12;97469.97;1589075;89;24624;-89
2021/01/05 10:19:37;;;;;;;;;;;;;;;1.98;81.11;97469.59;1588579;90;20443;-90
2021/01/05 10:22:28;;;;;;;;;;;;;;;2.00;81.11;97472.09;1605156;88;25199;-89
2021/01/05 10:25:14;;;;;;;;;;;;;;;1.99;81.12;97467.84;1592315;89;22180;-90
2021/01/05 10:28:03;;;;;;;;;;;;;;;1.93;81.11;97465.57;1585524;89;26921;-90
2021/01/05 10:30:52;;;;;;;;;;;;;;;1.90;81.13;97465.73;1577877;89;24840;-90
2021/01/05 10:33:40;;;;;;;;;;;;;;;1.92;81.13;97467.31;1584836;88;20195;-90
2021/01/05 10:36:26;;;;;;;;;;;;;;;1.95;81.13;97459.44;1594596;89;25031;-89
2021/01/05 10:39:14;;;;;;;;;;;;;;;1.97;81.14;97457.59;1601808;88;22421;-90
2021/01/05 10:42:00;;;;;;;;;;;;;;;2.02;81.13;97458.64;1648040;86;26300;-90
2021/01/05 10:44:46;;;;;;;;;;;;;;;2.05;81.18;97453.34;1651800;86;24620;-90
2021/01/05 10:47:32;;;;;;;;;;;;;;;2.06;81.19;97454.56;1646177;86;20370;-90
2021/01/05 10:50:19;;;;;;;;;;;;;;;2.09;81.20;97452.27;1627204;86;24685;-91
2021/01/05 10:53:05;;;;;;;;;;;;;;;2.12;81.20;97452.12;1649118;86;22115;-89
2021/01/05 10:55:51;;;;;;;;;;;;;;;2.13;81.21;97449.89;1648728;86;26154;-90
2021/01/05 10:58:37;;;;;;;;;;;;;;;2.13;81.24;97448.60;1648584;86;24716;-90
2021/01/05 11:01:24;;;;;;;;;;;;;;;2.12;81.25;97445.67;1651640;85;20316;-90
2021/01/05 11:04:10;;;;;;;;;;;;;;;2.10;81.24;97448.32;1652189;86;26048;-90
2021/01/05 11:06:57;;;;;;;;;;;;;;;2.09;81.25;97447.94;1611166;88;22978;-91
2021/01/05 11:09:44;;;;;;;;;;;;;;;2.09;81.25;97449.23;1656286;85;27174;-91
2021/01/05 11:12:31;;;;;;;;;;;;;;;2.11;81.26;97442.70;1658253;85;24543;-91
2021/01/05 11:15:18;;;;;;;;;;;;;;;2.10;81.25;97444.45;1642739;85;20697;-90
2021/01/05 11:18:04;;;;;;;;;;;;;;;2.09;81.25;97445.36;1627708;87;25111;-90
2021/01/05 11:20:50;;;;;;;;;;;;;;;2.08;81.25;97446.72;1640114;87;21508;-90
2021/01/05 11:23:37;;;;;;;;;;;;;;;2.05;81.26;97440.44;1641048;86;26161;-91
2021/01/05 11:26:23;;;;;;;;;;;;;;;2.05;81.28;97442.56;1639678;86;23835;-90
2021/01/05 11:29:11;;;;;;;;;;;;;;;2.02;81.26;97442.70;1625889;87;20501;-90
2021/01/05 11:31:57;;;;;;;;;;;;;;;2.00;81.25;97441.97;1640800;86;25187;-90
2021/01/05 11:34:43;;;;;;;;;;;;;;;1.97;81.26;97442.11;1622376;87;22112;-90
2021/01/05 11:37:29;;;;;;;;;;;;;;;1.92;81.26;97444.09;1622960;87;26246;-90
2021/01/05 11:40:03;;;;;;;;;;;;;;;1.91;81.26;97439.04;1624806;87;24648;-89
2021/01/05 11:42:54;;;;;;;;;;;;;;;1.90;81.27;97434.33;1629362;86;20625;-90
2021/01/05 11:45:40;;;;;;;;;;;;;;;1.89;81.25;97431.37;1626626;87;25131;-89
2021/01/05 11:48:30;;;;;;;;;;;;;;;1.89;81.27;97426.66;1595425;89;22167;-90
2021/01/05 11:51:16;;;;;;;;;;;;;;;1.89;81.27;97426.21;1652546;85;26978;-90
2021/01/05 11:54:02;;;;;;;;;;;;;;;1.86;81.27;97425.05;1644975;85;24769;-90
2021/01/05 11:56:48;;;;;;;;;;;;;;;1.85;81.27;97427.28;1624963;86;20347;-90
2021/01/05 11:59:38;;;;;;;;;;;;;;;1.84;81.29;97430.77;1623350;86;25048;-90
2021/01/05 12:02:26;;;;;;;;;;;;;;;1.87;81.28;97431.05;1636761;87;22375;-90
2021/01/05 12:05:13;;;;;;;;;;;;;;;1.90;81.31;97435.62;1618451;87;26151;-90
2021/01/05 12:08:00;;;;;;;;;;;;;;;1.89;81.33;97436.53;1663995;85;24739;-91
2021/01/05 12:10:45;;;;;;;;;;;;;;;1.87;81.33;97430.60;1655545;85;20369;-89
2021/01/05 12:13:34;;;;;;;;;;;;;;;1.85;81.34;97436.31;1630995;86;25120;-90
2021/01/05 12:16:22;;;;;;;;;;;;;;;1.86;81.36;97434.09;1619367;87;23635;-91
2021/01/05 12:19:12;;;;;;;;;;;;;;;1.89;81.35;97435.23;1633253;86;26192;-89
2021/01/05 12:21:58;;;;;;;;;;;;;;;1.91;81.35;97435.97;1630464;87;24645;-90
2021/01/05 12:24:52;;;;;;;;;;;;;;;1.89;81.38;97428.79;1634306;86;20299;-90
2021/01/05 12:27:39;;;;;;;;;;;;;;;1.88;81.39;97432.73;1632374;87;25229;-90
2021/01/05 12:30:27;;;;;;;;;;;;;;;1.88;81.40;97428.86;1628773;87;22340;-90
2021/01/05 12:33:13;;;;;;;;;;;;;;;1.87;81.40;97428.48;1630135;86;26132;-90
2021/01/05 12:36:00;;;;;;;;;;;;;;;1.85;81.43;97432.45;1635872;86;25749;-89
2021/01/05 12:38:46;;;;;;;;;;;;;;;1.86;81.43;97437.95;1630905;86;20403;-90
2021/01/05 12:41:33;;;;;;;;;;;;;;;1.87;81.44;97438.34;1633734;86;25352;-91
2021/01/05 12:44:21;;;;;;;;;;;;;;;1.88;81.45;97436.59;1632089;87;22309;-91
2021/01/05 12:47:07;;;;;;;;;;;;;;;1.88;81.47;97434.85;1632963;87;26200;-89
2021/01/05 12:49:53;;;;;;;;;;;;;;;1.89;81.49;97433.95;1631516;86;24878;-90
2021/01/05 12:52:40;;;;;;;;;;;;;;;1.89;81.48;97436.53;1632512;87;20531;-91
2021/01/05 12:55:26;;;;;;;;;;;;;;;1.89;81.52;97440.84;1636508;86;25099;-90
2021/01/05 12:58:12;;;;;;;;;;;;;;;1.88;81.52;97444.34;1633790;86;22302;-90
2021/01/05 13:00:59;;;;;;;;;;;;;;;1.86;81.52;97444.41;1635401;86;26148;-90
2021/01/05 13:03:44;;;;;;;;;;;;;;;1.88;81.52;97441.30;1630877;86;24760;-90
2021/01/05 13:06:31;;;;;;;;;;;;;;;1.91;81.54;97441.62;1634973;86;20182;-90
2021/01/05 13:09:16;;;;;;;;;;;;;;;1.95;81.52;97443.12;1626095;87;25190;-90
2021/01/05 13:12:02;;;;;;;;;;;;;;;1.95;81.56;97443.12;1606979;88;22310;-92
2021/01/05 13:14:50;;;;;;;;;;;;;;;1.96;81.59;97444.80;1607677;88;26166;-90
2021/01/05 13:17:36;;;;;;;;;;;;;;;1.94;81.59;97451.31;1607422;89;25556;-90
2021/01/05 13:20:26;;;;;;;;;;;;;;;1.94;81.59;97448.73;1606408;88;20480;-91
2021/01/05 13:23:13;;;;;;;;;;;;;;;1.97;81.59;97449.85;1608746;89;25113;-90
2021/01/05 13:26:03;;;;;;;;;;;;;;;1.98;81.60;97449.40;1609574;88;22157;-90
2021/01/05 13:28:50;;;;;;;;;;;;;;;2.01;81.61;97445.39;1604819;89;26510;-90
2021/01/05 13:31:36;;;;;;;;;;;;;;;2.01;81.62;97457.84;1601126;89;25480;-90
2021/01/05 13:34:22;;;;;;;;;;;;;;;2.01;81.63;97453.13;1605252;89;20320;-90
2021/01/05 13:37:08;;;;;;;;;;;;;;;1.97;81.63;97460.17;1606111;89;25297;-91
2021/01/05 13:39:54;;;;;;;;;;;;;;;1.96;81.64;97457.24;1609278;88;22189;-90
2021/01/05 13:42:41;;;;;;;;;;;;;;;1.95;81.64;97459.89;1606225;88;26136;-90
2021/01/05 13:45:27;;;;;;;;;;;;;;;1.97;81.63;97467.91;1608125;89;24645;-90
2021/01/05 13:48:14;;;;;;;;;;;;;;;1.96;81.64;97464.98;1606614;88;20580;-91
2021/01/05 13:51:01;;;;;;;;;;;;;;;1.96;81.64;97464.98;1603573;88;25118;-89
2021/01/05 13:53:47;;;;;;;;;;;;;;;1.93;81.66;97465.12;1609280;89;22339;-90
2021/01/05 13:56:33;;;;;;;;;;;;;;;1.91;81.64;97464.83;1605034;89;26136;-90
2021/01/05 13:59:19;;;;;;;;;;;;;;;1.88;81.66;97461.94;1602711;89;24599;-91
2021/01/05 14:02:05;;;;;;;;;;;;;;;1.85;81.65;97463.85;1608064;88;20426;-91
2021/01/05 14:04:51;;;;;;;;;;;;;;;1.83;81.65;97465.20;1606957;89;25179;-91
2021/01/05 14:07:40;;;;;;;;;;;;;;;1.84;81.65;97475.08;1608344;88;22247;-91
2021/01/05 14:10:27;;;;;;;;;;;;;;;1.84;81.66;97473.33;1621365;87;27006;-89
2021/01/05 14:13:13;;;;;;;;;;;;;;;1.83;81.66;97478.11;1632158;87;24715;-90
2021/01/05 14:15:59;;;;;;;;;;;;;;;1.82;81.67;97473.85;1631327;86;20274;-92
2021/01/05 14:18:45;;;;;;;;;;;;;;;1.80;81.68;97477.44;1632086;86;26001;-90
2021/01/05 14:21:32;;;;;;;;;;;;;;;1.77;81.68;97477.58;1632553;86;22312;-90
2021/01/05 14:24:18;;;;;;;;;;;;;;;1.75;81.69;97482.80;1634489;87;26332;-90
2021/01/05 14:27:05;;;;;;;;;;;;;;;1.74;81.68;97490.19;1631777;86;25407;-90
2021/01/05 14:29:51;;;;;;;;;;;;;;;1.75;81.71;97484.54;1633379;87;20520;-89
2021/01/05 14:32:40;;;;;;;;;;;;;;;1.69;81.69;97482.65;1631739;87;24915;-90
2021/01/05 14:35:26;;;;;;;;;;;;;;;1.67;81.71;97489.65;1630339;87;22283;-90
2021/01/05 14:38:13;;;;;;;;;;;;;;;1.62;81.72;97483.88;1631704;87;26298;-91
2021/01/05 14:41:04;;;;;;;;;;;;;;;1.63;81.71;97486.84;1632140;87;24641;-90
2021/01/05 14:43:51;;;;;;;;;;;;;;;1.63;81.71;97490.72;1632935;86;20321;-89
2021/01/05 14:46:38;;;;;;;;;;;;;;;1.62;81.74;97485.63;1634155;86;25101;-89
2021/01/05 14:49:14;;;;;;;;;;;;;;;1.62;81.74;97492.91;1632779;87;22190;-89